sensor_id;sensor_type;location;lat;lon;timestamp;P1;durP1;ratioP1;P2;durP2;ratioP2
74612;SDS011;63119;51.788;8.824;2022-11-20T00:01:20;14.77;;;6.57;;
74612;SDS011;63119;51.788;8.824;2022-11-20T00:03:47;11.35;;;5.55;;
74612;SDS011;63119;51.788;8.824;2022-11-20T00:06:14;14.30;;;6.70;;
74612;SDS011;63119;51.788;8.824;2022-11-20T00:08:41;13.20;;;7.10;;
74612;SDS011;63119;51.788;8.824;2022-11-20T00:11:08;16.15;;;7.32;;
74612;SDS011;63119;51.788;8.824;2022-11-20T00:13:35;15.50;;;7.40;;
74612;SDS011;63119;51.788;8.824;2022-11-20T00:16:01;16.63;;;7.78;;
74612;SDS011;63119;51.788;8.824;2022-11-20T00:18:28;13.05;;;5.93;;
74612;SDS011;63119;51.788;8.824;2022-11-20T00:20:59;15.00;;;6.00;;
74612;SDS011;63119;51.788;8.824;2022-11-20T00:23:26;12.10;;;6.10;;
74612;SDS011;63119;51.788;8.824;2022-11-20T00:25:51;12.07;;;6.37;;
74612;SDS011;63119;51.788;8.824;2022-11-20T00:28:16;10.67;;;6.40;;
74612;SDS011;63119;51.788;8.824;2022-11-20T00:30:41;12.67;;;6.43;;
74612;SDS011;63119;51.788;8.824;2022-11-20T00:33:07;11.00;;;5.40;;
74612;SDS011;63119;51.788;8.824;2022-11-20T00:35:32;9.83;;;4.63;;
74612;SDS011;63119;51.788;8.824;2022-11-20T00:37:57;10.23;;;4.87;;
74612;SDS011;63119;51.788;8.824;2022-11-20T00:40:23;14.60;;;5.00;;
74612;SDS011;63119;51.788;8.824;2022-11-20T00:42:48;9.07;;;3.73;;
74612;SDS011;63119;51.788;8.824;2022-11-20T00:45:13;8.50;;;3.80;;
74612;SDS011;63119;51.788;8.824;2022-11-20T00:47:38;6.53;;;3.53;;
74612;SDS011;63119;51.788;8.824;2022-11-20T00:50:04;7.10;;;3.83;;
74612;SDS011;63119;51.788;8.824;2022-11-20T00:52:29;8.90;;;4.75;;
74612;SDS011;63119;51.788;8.824;2022-11-20T00:54:55;10.30;;;4.70;;
74612;SDS011;63119;51.788;8.824;2022-11-20T00:57:20;10.43;;;5.27;;
74612;SDS011;63119;51.788;8.824;2022-11-20T00:59:45;10.40;;;5.03;;
74612;SDS011;63119;51.788;8.824;2022-11-20T01:02:10;14.70;;;5.50;;
74612;SDS011;63119;51.788;8.824;2022-11-20T01:04:36;14.67;;;6.17;;
74612;SDS011;63119;51.788;8.824;2022-11-20T01:07:01;16.83;;;6.13;;
74612;SDS011;63119;51.788;8.824;2022-11-20T01:09:26;11.67;;;6.03;;
74612;SDS011;63119;51.788;8.824;2022-11-20T01:11:51;12.23;;;5.50;;
74612;SDS011;63119;51.788;8.824;2022-11-20T01:14:17;10.90;;;4.93;;
74612;SDS011;63119;51.788;8.824;2022-11-20T01:16:46;14.65;;;5.95;;
74612;SDS011;63119;51.788;8.824;2022-11-20T01:19:14;13.95;;;6.05;;
74612;SDS011;63119;51.788;8.824;2022-11-20T01:21:42;10.00;;;5.28;;
74612;SDS011;63119;51.788;8.824;2022-11-20T01:24:11;11.07;;;5.07;;
74612;SDS011;63119;51.788;8.824;2022-11-20T01:26:38;11.80;;;5.30;;
74612;SDS011;63119;51.788;8.824;2022-11-20T01:29:06;10.85;;;4.82;;
74612;SDS011;63119;51.788;8.824;2022-11-20T01:31:33;14.43;;;5.05;;
74612;SDS011;63119;51.788;8.824;2022-11-20T01:34:03;10.93;;;4.35;;
74612;SDS011;63119;51.788;8.824;2022-11-20T01:36:31;11.23;;;5.55;;
74612;SDS011;63119;51.788;8.824;2022-11-20T01:38:58;12.40;;;4.85;;
74612;SDS011;63119;51.788;8.824;2022-11-20T01:41:29;10.60;;;5.05;;
74612;SDS011;63119;51.788;8.824;2022-11-20T01:44:15;8.98;;;4.93;;
74612;SDS011;63119;51.788;8.824;2022-11-20T01:46:57;8.50;;;4.65;;
74612;SDS011;63119;51.788;8.824;2022-11-20T01:49:25;10.95;;;5.03;;
74612;SDS011;63119;51.788;8.824;2022-11-20T01:51:59;8.73;;;4.38;;
74612;SDS011;63119;51.788;8.824;2022-11-20T01:57:22;8.13;;;3.55;;
74612;SDS011;63119;51.788;8.824;2022-11-20T01:59:54;9.65;;;4.22;;
74612;SDS011;63119;51.788;8.824;2022-11-20T02:02:26;12.05;;;4.25;;
74612;SDS011;63119;51.788;8.824;2022-11-20T02:04:53;11.25;;;3.83;;
74612;SDS011;63119;51.788;8.824;2022-11-20T02:07:21;7.53;;;3.67;;
74612;SDS011;63119;51.788;8.824;2022-11-20T02:09:48;7.72;;;3.15;;
74612;SDS011;63119;51.788;8.824;2022-11-20T02:12:13;6.82;;;3.45;;
74612;SDS011;63119;51.788;8.824;2022-11-20T02:14:59;6.55;;;3.40;;
74612;SDS011;63119;51.788;8.824;2022-11-20T02:17:25;5.78;;;3.35;;
74612;SDS011;63119;51.788;8.824;2022-11-20T02:19:50;6.32;;;3.05;;
74612;SDS011;63119;51.788;8.824;2022-11-20T02:22:19;8.85;;;4.15;;
74612;SDS011;63119;51.788;8.824;2022-11-20T02:24:53;9.30;;;3.88;;
74612;SDS011;63119;51.788;8.824;2022-11-20T02:27:18;5.50;;;3.50;;
74612;SDS011;63119;51.788;8.824;2022-11-20T02:29:46;7.45;;;3.70;;
74612;SDS011;63119;51.788;8.824;2022-11-20T02:32:21;8.77;;;4.03;;
74612;SDS011;63119;51.788;8.824;2022-11-20T02:34:49;9.27;;;4.15;;
74612;SDS011;63119;51.788;8.824;2022-11-20T02:37:14;7.43;;;4.00;;
74612;SDS011;63119;51.788;8.824;2022-11-20T02:39:40;8.88;;;3.85;;
74612;SDS011;63119;51.788;8.824;2022-11-20T02:42:06;6.22;;;3.67;;
74612;SDS011;63119;51.788;8.824;2022-11-20T02:44:32;7.57;;;3.70;;
74612;SDS011;63119;51.788;8.824;2022-11-20T02:46:57;7.93;;;3.77;;
74612;SDS011;63119;51.788;8.824;2022-11-20T02:49:23;7.47;;;3.47;;
74612;SDS011;63119;51.788;8.824;2022-11-20T02:51:49;7.50;;;3.35;;
74612;SDS011;63119;51.788;8.824;2022-11-20T02:54:14;7.73;;;3.60;;
74612;SDS011;63119;51.788;8.824;2022-11-20T02:56:40;11.40;;;4.13;;
74612;SDS011;63119;51.788;8.824;2022-11-20T02:59:05;8.83;;;4.30;;
74612;SDS011;63119;51.788;8.824;2022-11-20T03:01:31;10.30;;;3.90;;
74612;SDS011;63119;51.788;8.824;2022-11-20T03:03:56;9.03;;;3.43;;
74612;SDS011;63119;51.788;8.824;2022-11-20T03:06:21;7.20;;;3.40;;
74612;SDS011;63119;51.788;8.824;2022-11-20T03:08:47;7.53;;;3.10;;
74612;SDS011;63119;51.788;8.824;2022-11-20T03:11:12;7.60;;;3.20;;
74612;SDS011;63119;51.788;8.824;2022-11-20T03:13:38;7.67;;;2.93;;
74612;SDS011;63119;51.788;8.824;2022-11-20T03:16:07;7.10;;;3.33;;
74612;SDS011;63119;51.788;8.824;2022-11-20T03:18:40;8.38;;;2.92;;
74612;SDS011;63119;51.788;8.824;2022-11-20T03:21:07;5.15;;;2.40;;
74612;SDS011;63119;51.788;8.824;2022-11-20T03:23:33;4.38;;;2.45;;
74612;SDS011;63119;51.788;8.824;2022-11-20T03:28:48;5.28;;;2.92;;
74612;SDS011;63119;51.788;8.824;2022-11-20T03:31:15;5.10;;;2.67;;
74612;SDS011;63119;51.788;8.824;2022-11-20T03:33:43;5.43;;;2.70;;
74612;SDS011;63119;51.788;8.824;2022-11-20T03:36:10;9.48;;;2.72;;
74612;SDS011;63119;51.788;8.824;2022-11-20T03:38:38;4.25;;;2.50;;
74612;SDS011;63119;51.788;8.824;2022-11-20T03:41:04;6.32;;;2.85;;
74612;SDS011;63119;51.788;8.824;2022-11-20T03:43:31;5.72;;;2.40;;
74612;SDS011;63119;51.788;8.824;2022-11-20T03:45:57;7.60;;;3.00;;
74612;SDS011;63119;51.788;8.824;2022-11-20T03:48:23;12.45;;;4.03;;
74612;SDS011;63119;51.788;8.824;2022-11-20T03:50:48;8.02;;;3.30;;
74612;SDS011;63119;51.788;8.824;2022-11-20T03:53:14;7.67;;;3.57;;
74612;SDS011;63119;51.788;8.824;2022-11-20T03:55:39;10.50;;;4.32;;
74612;SDS011;63119;51.788;8.824;2022-11-20T03:58:05;6.60;;;3.50;;
74612;SDS011;63119;51.788;8.824;2022-11-20T04:00:30;6.93;;;3.73;;
74612;SDS011;63119;51.788;8.824;2022-11-20T04:02:58;11.33;;;4.50;;
74612;SDS011;63119;51.788;8.824;2022-11-20T04:05:24;8.25;;;3.42;;
74612;SDS011;63119;51.788;8.824;2022-11-20T04:07:50;7.07;;;3.67;;
74612;SDS011;63119;51.788;8.824;2022-11-20T04:10:15;6.07;;;2.60;;
74612;SDS011;63119;51.788;8.824;2022-11-20T04:12:40;6.93;;;2.80;;
74612;SDS011;63119;51.788;8.824;2022-11-20T04:15:05;5.90;;;2.43;;
74612;SDS011;63119;51.788;8.824;2022-11-20T04:17:31;5.45;;;2.50;;
74612;SDS011;63119;51.788;8.824;2022-11-20T04:19:56;6.20;;;2.63;;
74612;SDS011;63119;51.788;8.824;2022-11-20T04:22:21;6.30;;;2.70;;
74612;SDS011;63119;51.788;8.824;2022-11-20T04:24:47;3.80;;;2.57;;
74612;SDS011;63119;51.788;8.824;2022-11-20T04:27:12;3.57;;;2.17;;
74612;SDS011;63119;51.788;8.824;2022-11-20T04:29:37;5.73;;;3.10;;
74612;SDS011;63119;51.788;8.824;2022-11-20T04:32:03;5.90;;;3.13;;
74612;SDS011;63119;51.788;8.824;2022-11-20T04:34:28;4.43;;;2.17;;
74612;SDS011;63119;51.788;8.824;2022-11-20T04:36:53;5.80;;;2.40;;
74612;SDS011;63119;51.788;8.824;2022-11-20T04:39:18;3.30;;;1.83;;
74612;SDS011;63119;51.788;8.824;2022-11-20T04:41:44;4.73;;;2.33;;
74612;SDS011;63119;51.788;8.824;2022-11-20T04:44:09;7.13;;;2.60;;
74612;SDS011;63119;51.788;8.824;2022-11-20T04:46:36;5.07;;;2.00;;
74612;SDS011;63119;51.788;8.824;2022-11-20T04:49:05;4.78;;;2.30;;
74612;SDS011;63119;51.788;8.824;2022-11-20T04:51:31;4.90;;;2.22;;
74612;SDS011;63119;51.788;8.824;2022-11-20T04:53:57;3.50;;;2.00;;
74612;SDS011;63119;51.788;8.824;2022-11-20T04:56:22;5.93;;;2.37;;
74612;SDS011;63119;51.788;8.824;2022-11-20T04:58:48;3.73;;;2.13;;
74612;SDS011;63119;51.788;8.824;2022-11-20T05:01:17;3.83;;;2.10;;
74612;SDS011;63119;51.788;8.824;2022-11-20T05:03:47;5.55;;;2.13;;
74612;SDS011;63119;51.788;8.824;2022-11-20T05:06:14;3.97;;;2.08;;
74612;SDS011;63119;51.788;8.824;2022-11-20T05:08:40;6.30;;;2.60;;
74612;SDS011;63119;51.788;8.824;2022-11-20T05:11:07;5.97;;;2.45;;
74612;SDS011;63119;51.788;8.824;2022-11-20T05:13:34;5.82;;;2.47;;
74612;SDS011;63119;51.788;8.824;2022-11-20T05:16:12;4.57;;;2.42;;
74612;SDS011;63119;51.788;8.824;2022-11-20T05:18:40;5.25;;;2.50;;
74612;SDS011;63119;51.788;8.824;2022-11-20T05:21:06;5.00;;;2.30;;
74612;SDS011;63119;51.788;8.824;2022-11-20T05:23:32;5.18;;;2.20;;
74612;SDS011;63119;51.788;8.824;2022-11-20T05:25:58;3.90;;;2.25;;
74612;SDS011;63119;51.788;8.824;2022-11-20T05:28:25;7.32;;;2.75;;
74612;SDS011;63119;51.788;8.824;2022-11-20T05:30:51;6.75;;;2.30;;
74612;SDS011;63119;51.788;8.824;2022-11-20T05:33:16;5.03;;;2.72;;
74612;SDS011;63119;51.788;8.824;2022-11-20T05:35:42;5.25;;;2.60;;
74612;SDS011;63119;51.788;8.824;2022-11-20T05:38:08;6.28;;;2.45;;
74612;SDS011;63119;51.788;8.824;2022-11-20T05:40:33;4.90;;;2.70;;
74612;SDS011;63119;51.788;8.824;2022-11-20T05:42:59;4.80;;;2.80;;
74612;SDS011;63119;51.788;8.824;2022-11-20T05:45:25;4.78;;;2.28;;
74612;SDS011;63119;51.788;8.824;2022-11-20T05:47:50;4.73;;;2.40;;
74612;SDS011;63119;51.788;8.824;2022-11-20T05:50:15;8.37;;;3.50;;
74612;SDS011;63119;51.788;8.824;2022-11-20T05:52:41;6.97;;;2.78;;
74612;SDS011;63119;51.788;8.824;2022-11-20T05:55:06;3.97;;;2.37;;
74612;SDS011;63119;51.788;8.824;2022-11-20T05:57:31;5.47;;;2.72;;
74612;SDS011;63119;51.788;8.824;2022-11-20T05:59:57;4.38;;;2.70;;
74612;SDS011;63119;51.788;8.824;2022-11-20T06:02:22;6.07;;;3.57;;
74612;SDS011;63119;51.788;8.824;2022-11-20T06:04:48;4.82;;;2.72;;
74612;SDS011;63119;51.788;8.824;2022-11-20T06:07:13;6.77;;;3.20;;
74612;SDS011;63119;51.788;8.824;2022-11-20T06:09:38;7.78;;;3.40;;
74612;SDS011;63119;51.788;8.824;2022-11-20T06:12:04;6.60;;;2.63;;
74612;SDS011;63119;51.788;8.824;2022-11-20T06:14:29;6.22;;;3.25;;
74612;SDS011;63119;51.788;8.824;2022-11-20T06:16:54;4.40;;;2.53;;
74612;SDS011;63119;51.788;8.824;2022-11-20T06:19:20;5.93;;;3.10;;
74612;SDS011;63119;51.788;8.824;2022-11-20T06:21:47;7.78;;;3.08;;
74612;SDS011;63119;51.788;8.824;2022-11-20T06:24:13;6.43;;;3.60;;
74612;SDS011;63119;51.788;8.824;2022-11-20T06:26:38;7.87;;;3.23;;
74612;SDS011;63119;51.788;8.824;2022-11-20T06:29:03;6.37;;;2.87;;
74612;SDS011;63119;51.788;8.824;2022-11-20T06:31:29;7.73;;;3.43;;
74612;SDS011;63119;51.788;8.824;2022-11-20T06:33:54;8.05;;;3.72;;
74612;SDS011;63119;51.788;8.824;2022-11-20T06:36:21;7.50;;;3.50;;
74612;SDS011;63119;51.788;8.824;2022-11-20T06:38:47;7.00;;;3.95;;
74612;SDS011;63119;51.788;8.824;2022-11-20T06:41:13;8.77;;;4.32;;
74612;SDS011;63119;51.788;8.824;2022-11-20T06:43:40;5.68;;;3.05;;
74612;SDS011;63119;51.788;8.824;2022-11-20T06:46:06;6.47;;;3.23;;
74612;SDS011;63119;51.788;8.824;2022-11-20T06:48:31;6.82;;;3.63;;
74612;SDS011;63119;51.788;8.824;2022-11-20T06:50:57;8.27;;;3.83;;
74612;SDS011;63119;51.788;8.824;2022-11-20T06:53:23;7.00;;;3.42;;
74612;SDS011;63119;51.788;8.824;2022-11-20T06:55:49;9.15;;;4.30;;
74612;SDS011;63119;51.788;8.824;2022-11-20T06:58:16;10.88;;;4.35;;
74612;SDS011;63119;51.788;8.824;2022-11-20T07:00:42;8.13;;;4.82;;
74612;SDS011;63119;51.788;8.824;2022-11-20T07:03:09;11.93;;;5.28;;
74612;SDS011;63119;51.788;8.824;2022-11-20T07:05:35;12.65;;;5.75;;
74612;SDS011;63119;51.788;8.824;2022-11-20T07:08:01;7.18;;;4.18;;
74612;SDS011;63119;51.788;8.824;2022-11-20T07:10:27;9.07;;;5.30;;
74612;SDS011;63119;51.788;8.824;2022-11-20T07:12:53;11.73;;;6.13;;
74612;SDS011;63119;51.788;8.824;2022-11-20T07:15:20;12.93;;;6.25;;
74612;SDS011;63119;51.788;8.824;2022-11-20T07:17:46;12.93;;;6.53;;
74612;SDS011;63119;51.788;8.824;2022-11-20T07:20:14;15.50;;;7.82;;
74612;SDS011;63119;51.788;8.824;2022-11-20T07:22:40;13.73;;;7.47;;
74612;SDS011;63119;51.788;8.824;2022-11-20T07:25:06;14.90;;;7.63;;
74612;SDS011;63119;51.788;8.824;2022-11-20T07:27:32;15.30;;;7.07;;
74612;SDS011;63119;51.788;8.824;2022-11-20T07:29:57;15.00;;;6.80;;
74612;SDS011;63119;51.788;8.824;2022-11-20T07:32:22;15.27;;;7.13;;
74612;SDS011;63119;51.788;8.824;2022-11-20T07:34:48;10.25;;;6.05;;
74612;SDS011;63119;51.788;8.824;2022-11-20T07:37:13;12.00;;;6.15;;
74612;SDS011;63119;51.788;8.824;2022-11-20T07:39:39;11.82;;;6.20;;
74612;SDS011;63119;51.788;8.824;2022-11-20T07:42:05;13.20;;;6.20;;
74612;SDS011;63119;51.788;8.824;2022-11-20T07:44:31;11.23;;;5.65;;
74612;SDS011;63119;51.788;8.824;2022-11-20T07:46:56;15.33;;;6.00;;
74612;SDS011;63119;51.788;8.824;2022-11-20T07:49:22;16.20;;;7.37;;
74612;SDS011;63119;51.788;8.824;2022-11-20T07:51:49;13.17;;;5.63;;
74612;SDS011;63119;51.788;8.824;2022-11-20T07:54:15;11.85;;;5.57;;
74612;SDS011;63119;51.788;8.824;2022-11-20T07:56:40;11.30;;;5.43;;
74612;SDS011;63119;51.788;8.824;2022-11-20T07:59:05;12.83;;;5.30;;
74612;SDS011;63119;51.788;8.824;2022-11-20T08:01:31;10.13;;;4.20;;
74612;SDS011;63119;51.788;8.824;2022-11-20T08:03:56;10.20;;;4.63;;
74612;SDS011;63119;51.788;8.824;2022-11-20T08:06:21;8.00;;;4.23;;
74612;SDS011;63119;51.788;8.824;2022-11-20T08:08:46;11.37;;;5.30;;
74612;SDS011;63119;51.788;8.824;2022-11-20T08:11:12;11.93;;;5.20;;
74612;SDS011;63119;51.788;8.824;2022-11-20T08:13:56;10.00;;;5.18;;
74612;SDS011;63119;51.788;8.824;2022-11-20T08:16:36;7.88;;;4.28;;
74612;SDS011;63119;51.788;8.824;2022-11-20T08:19:01;10.73;;;4.40;;
74612;SDS011;63119;51.788;8.824;2022-11-20T08:21:27;12.60;;;4.53;;
74612;SDS011;63119;51.788;8.824;2022-11-20T08:23:52;10.73;;;4.77;;
74612;SDS011;63119;51.788;8.824;2022-11-20T08:26:17;11.53;;;4.90;;
74612;SDS011;63119;51.788;8.824;2022-11-20T08:28:43;9.03;;;5.07;;
74612;SDS011;63119;51.788;8.824;2022-11-20T08:31:08;9.45;;;4.60;;
74612;SDS011;63119;51.788;8.824;2022-11-20T08:33:34;9.15;;;4.57;;
74612;SDS011;63119;51.788;8.824;2022-11-20T08:36:00;9.05;;;4.38;;
74612;SDS011;63119;51.788;8.824;2022-11-20T08:38:29;8.27;;;4.68;;
74612;SDS011;63119;51.788;8.824;2022-11-20T08:41:02;8.10;;;4.70;;
74612;SDS011;63119;51.788;8.824;2022-11-20T08:43:47;7.97;;;4.22;;
74612;SDS011;63119;51.788;8.824;2022-11-20T08:46:12;12.83;;;5.37;;
74612;SDS011;63119;51.788;8.824;2022-11-20T08:48:37;10.17;;;5.57;;
74612;SDS011;63119;51.788;8.824;2022-11-20T08:51:03;13.43;;;5.57;;
74612;SDS011;63119;51.788;8.824;2022-11-20T08:53:28;12.77;;;6.07;;
74612;SDS011;63119;51.788;8.824;2022-11-20T08:55:54;10.68;;;6.00;;
74612;SDS011;63119;51.788;8.824;2022-11-20T08:58:19;12.63;;;5.97;;
74612;SDS011;63119;51.788;8.824;2022-11-20T09:00:45;13.60;;;5.87;;
74612;SDS011;63119;51.788;8.824;2022-11-20T09:03:10;16.37;;;6.77;;
74612;SDS011;63119;51.788;8.824;2022-11-20T09:05:35;11.93;;;5.60;;
74612;SDS011;63119;51.788;8.824;2022-11-20T09:08:00;14.70;;;7.47;;
74612;SDS011;63119;51.788;8.824;2022-11-20T09:10:26;13.47;;;6.73;;
74612;SDS011;63119;51.788;8.824;2022-11-20T09:12:52;15.52;;;7.28;;
74612;SDS011;63119;51.788;8.824;2022-11-20T09:15:17;12.88;;;7.13;;
74612;SDS011;63119;51.788;8.824;2022-11-20T09:17:53;14.18;;;6.40;;
74612;SDS011;63119;51.788;8.824;2022-11-20T09:20:19;11.15;;;6.35;;
74612;SDS011;63119;51.788;8.824;2022-11-20T09:22:45;13.93;;;6.38;;
74612;SDS011;63119;51.788;8.824;2022-11-20T09:25:10;14.50;;;6.63;;
74612;SDS011;63119;51.788;8.824;2022-11-20T09:27:35;11.27;;;6.00;;
74612;SDS011;63119;51.788;8.824;2022-11-20T09:30:01;11.90;;;5.73;;
74612;SDS011;63119;51.788;8.824;2022-11-20T09:32:27;14.25;;;6.40;;
74612;SDS011;63119;51.788;8.824;2022-11-20T09:34:52;11.03;;;5.30;;
74612;SDS011;63119;51.788;8.824;2022-11-20T09:37:17;11.23;;;5.03;;
74612;SDS011;63119;51.788;8.824;2022-11-20T09:39:42;10.67;;;4.63;;
74612;SDS011;63119;51.788;8.824;2022-11-20T09:42:20;10.03;;;5.00;;
74612;SDS011;63119;51.788;8.824;2022-11-20T09:48:04;13.07;;;5.45;;
74612;SDS011;63119;51.788;8.824;2022-11-20T09:50:45;11.45;;;4.90;;
74612;SDS011;63119;51.788;8.824;2022-11-20T09:55:48;12.02;;;5.20;;
74612;SDS011;63119;51.788;8.824;2022-11-20T09:58:31;13.33;;;5.37;;
74612;SDS011;63119;51.788;8.824;2022-11-20T10:01:03;12.20;;;5.93;;
74612;SDS011;63119;51.788;8.824;2022-11-20T10:03:37;11.82;;;5.32;;
74612;SDS011;63119;51.788;8.824;2022-11-20T10:06:12;11.20;;;5.82;;
74612;SDS011;63119;51.788;8.824;2022-11-20T10:09:22;12.55;;;5.57;;
74612;SDS011;63119;51.788;8.824;2022-11-20T10:11:38;14.50;;;5.97;;
74612;SDS011;63119;51.788;8.824;2022-11-20T10:23:04;17.42;;;5.95;;
74612;SDS011;63119;51.788;8.824;2022-11-20T10:26:04;13.20;;;6.25;;
74612;SDS011;63119;51.788;8.824;2022-11-20T10:28:52;17.45;;;6.38;;
74612;SDS011;63119;51.788;8.824;2022-11-20T10:31:37;13.80;;;6.00;;
74612;SDS011;63119;51.788;8.824;2022-11-20T10:34:06;17.00;;;6.90;;
74612;SDS011;63119;51.788;8.824;2022-11-20T10:36:58;14.30;;;7.20;;
74612;SDS011;63119;51.788;8.824;2022-11-20T10:42:13;13.60;;;6.22;;
74612;SDS011;63119;51.788;8.824;2022-11-20T10:44:43;11.50;;;5.25;;
74612;SDS011;63119;51.788;8.824;2022-11-20T10:47:30;16.75;;;7.10;;
74612;SDS011;63119;51.788;8.824;2022-11-20T10:49:57;14.48;;;6.70;;
74612;SDS011;63119;51.788;8.824;2022-11-20T10:52:42;15.65;;;6.18;;
74612;SDS011;63119;51.788;8.824;2022-11-20T10:55:25;12.88;;;5.57;;
74612;SDS011;63119;51.788;8.824;2022-11-20T11:00:33;14.43;;;6.40;;
74612;SDS011;63119;51.788;8.824;2022-11-20T11:02:59;13.10;;;6.40;;
74612;SDS011;63119;51.788;8.824;2022-11-20T11:08:04;11.70;;;6.00;;
74612;SDS011;63119;51.788;8.824;2022-11-20T11:10:53;11.60;;;5.80;;
74612;SDS011;63119;51.788;8.824;2022-11-20T11:13:23;15.00;;;5.78;;
74612;SDS011;63119;51.788;8.824;2022-11-20T11:15:50;14.75;;;5.88;;
74612;SDS011;63119;51.788;8.824;2022-11-20T11:18:23;16.15;;;7.65;;
74612;SDS011;63119;51.788;8.824;2022-11-20T11:20:50;16.55;;;6.75;;
74612;SDS011;63119;51.788;8.824;2022-11-20T11:23:28;12.57;;;5.72;;
74612;SDS011;63119;51.788;8.824;2022-11-20T11:25:58;14.48;;;6.65;;
74612;SDS011;63119;51.788;8.824;2022-11-20T11:28:25;13.10;;;6.07;;
74612;SDS011;63119;51.788;8.824;2022-11-20T11:30:52;14.45;;;6.68;;
74612;SDS011;63119;51.788;8.824;2022-11-20T11:33:19;12.02;;;6.47;;
74612;SDS011;63119;51.788;8.824;2022-11-20T11:35:46;15.52;;;7.25;;
74612;SDS011;63119;51.788;8.824;2022-11-20T11:38:27;15.27;;;6.35;;
74612;SDS011;63119;51.788;8.824;2022-11-20T11:40:53;16.77;;;6.57;;
74612;SDS011;63119;51.788;8.824;2022-11-20T11:43:21;13.30;;;5.88;;
74612;SDS011;63119;51.788;8.824;2022-11-20T11:46:40;15.00;;;7.25;;
74612;SDS011;63119;51.788;8.824;2022-11-20T11:53:58;14.93;;;6.85;;
74612;SDS011;63119;51.788;8.824;2022-11-20T11:56:25;14.10;;;6.93;;
74612;SDS011;63119;51.788;8.824;2022-11-20T11:58:53;14.27;;;7.63;;
74612;SDS011;63119;51.788;8.824;2022-11-20T12:06:56;11.82;;;6.38;;
74612;SDS011;63119;51.788;8.824;2022-11-20T12:09:27;14.10;;;7.07;;
74612;SDS011;63119;51.788;8.824;2022-11-20T12:12:05;13.75;;;6.90;;
74612;SDS011;63119;51.788;8.824;2022-11-20T12:14:37;15.80;;;7.72;;
74612;SDS011;63119;51.788;8.824;2022-11-20T12:17:04;11.18;;;6.18;;
74612;SDS011;63119;51.788;8.824;2022-11-20T12:19:30;12.13;;;6.32;;
74612;SDS011;63119;51.788;8.824;2022-11-20T12:30:18;11.75;;;6.45;;
74612;SDS011;63119;51.788;8.824;2022-11-20T12:32:54;11.82;;;6.00;;
74612;SDS011;63119;51.788;8.824;2022-11-20T12:41:27;18.27;;;8.32;;
74612;SDS011;63119;51.788;8.824;2022-11-20T12:44:37;14.50;;;7.85;;
74612;SDS011;63119;51.788;8.824;2022-11-20T12:53:52;15.88;;;7.25;;
74612;SDS011;63119;51.788;8.824;2022-11-20T12:56:50;12.00;;;6.18;;
74612;SDS011;63119;51.788;8.824;2022-11-20T13:02:30;15.02;;;7.70;;
74612;SDS011;63119;51.788;8.824;2022-11-20T13:08:01;14.20;;;6.00;;
74612;SDS011;63119;51.788;8.824;2022-11-20T13:10:38;12.93;;;6.43;;
74612;SDS011;63119;51.788;8.824;2022-11-20T13:13:33;13.27;;;6.40;;
74612;SDS011;63119;51.788;8.824;2022-11-20T13:16:10;12.45;;;6.22;;
74612;SDS011;63119;51.788;8.824;2022-11-20T13:18:37;15.65;;;7.20;;
74612;SDS011;63119;51.788;8.824;2022-11-20T13:21:40;35.45;;;13.98;;
74612;SDS011;63119;51.788;8.824;2022-11-20T13:24:06;15.90;;;7.70;;
74612;SDS011;63119;51.788;8.824;2022-11-20T13:26:31;15.05;;;7.13;;
74612;SDS011;63119;51.788;8.824;2022-11-20T13:29:02;17.88;;;7.75;;
74612;SDS011;63119;51.788;8.824;2022-11-20T13:31:34;15.77;;;7.50;;
74612;SDS011;63119;51.788;8.824;2022-11-20T13:34:02;15.35;;;7.38;;
74612;SDS011;63119;51.788;8.824;2022-11-20T13:36:30;15.20;;;7.18;;
74612;SDS011;63119;51.788;8.824;2022-11-20T13:38:57;14.48;;;6.75;;
74612;SDS011;63119;51.788;8.824;2022-11-20T13:41:23;13.20;;;7.10;;
74612;SDS011;63119;51.788;8.824;2022-11-20T13:46:44;15.77;;;7.40;;
74612;SDS011;63119;51.788;8.824;2022-11-20T13:49:18;14.32;;;6.88;;
74612;SDS011;63119;51.788;8.824;2022-11-20T13:51:51;13.43;;;6.72;;
74612;SDS011;63119;51.788;8.824;2022-11-20T14:00:11;9.48;;;4.75;;
74612;SDS011;63119;51.788;8.824;2022-11-20T14:02:37;10.68;;;4.75;;
74612;SDS011;63119;51.788;8.824;2022-11-20T14:05:03;10.95;;;5.35;;
74612;SDS011;63119;51.788;8.824;2022-11-20T14:07:35;10.73;;;5.63;;
74612;SDS011;63119;51.788;8.824;2022-11-20T14:10:04;10.43;;;4.90;;
74612;SDS011;63119;51.788;8.824;2022-11-20T14:12:31;10.80;;;5.47;;
74612;SDS011;63119;51.788;8.824;2022-11-20T14:14:58;9.80;;;5.40;;
74612;SDS011;63119;51.788;8.824;2022-11-20T14:17:32;10.75;;;5.20;;
74612;SDS011;63119;51.788;8.824;2022-11-20T14:20:12;12.93;;;5.53;;
74612;SDS011;63119;51.788;8.824;2022-11-20T14:22:47;11.60;;;5.95;;
74612;SDS011;63119;51.788;8.824;2022-11-20T14:27:39;13.40;;;5.90;;
74612;SDS011;63119;51.788;8.824;2022-11-20T14:30:16;11.27;;;5.43;;
74612;SDS011;63119;51.788;8.824;2022-11-20T14:32:47;11.02;;;5.72;;
74612;SDS011;63119;51.788;8.824;2022-11-20T14:35:21;13.05;;;5.68;;
74612;SDS011;63119;51.788;8.824;2022-11-20T14:37:50;11.88;;;6.07;;
74612;SDS011;63119;51.788;8.824;2022-11-20T14:42:48;13.50;;;6.53;;
74612;SDS011;63119;51.788;8.824;2022-11-20T14:45:13;12.05;;;5.93;;
74612;SDS011;63119;51.788;8.824;2022-11-20T14:47:39;10.55;;;6.07;;
74612;SDS011;63119;51.788;8.824;2022-11-20T14:50:08;14.32;;;6.10;;
74612;SDS011;63119;51.788;8.824;2022-11-20T14:52:49;10.10;;;5.15;;
74612;SDS011;63119;51.788;8.824;2022-11-20T14:55:34;10.88;;;5.28;;
74612;SDS011;63119;51.788;8.824;2022-11-20T14:58:24;9.65;;;5.15;;
74612;SDS011;63119;51.788;8.824;2022-11-20T15:00:56;9.52;;;5.47;;
74612;SDS011;63119;51.788;8.824;2022-11-20T15:03:36;11.93;;;6.20;;
74612;SDS011;63119;51.788;8.824;2022-11-20T15:06:03;13.13;;;5.03;;
74612;SDS011;63119;51.788;8.824;2022-11-20T15:08:29;11.63;;;5.78;;
74612;SDS011;63119;51.788;8.824;2022-11-20T15:10:55;10.68;;;5.20;;
74612;SDS011;63119;51.788;8.824;2022-11-20T15:13:25;13.48;;;5.70;;
74612;SDS011;63119;51.788;8.824;2022-11-20T15:15:57;11.88;;;5.25;;
74612;SDS011;63119;51.788;8.824;2022-11-20T15:18:28;12.38;;;6.43;;
74612;SDS011;63119;51.788;8.824;2022-11-20T15:20:57;17.02;;;7.85;;
74612;SDS011;63119;51.788;8.824;2022-11-20T15:23:26;16.73;;;8.10;;
74612;SDS011;63119;51.788;8.824;2022-11-20T15:25:51;14.10;;;6.43;;
74612;SDS011;63119;51.788;8.824;2022-11-20T15:30:42;10.45;;;6.10;;
74612;SDS011;63119;51.788;8.824;2022-11-20T15:33:08;12.60;;;6.03;;
74612;SDS011;63119;51.788;8.824;2022-11-20T15:35:34;12.82;;;6.65;;
74612;SDS011;63119;51.788;8.824;2022-11-20T15:37:59;11.90;;;6.97;;
74612;SDS011;63119;51.788;8.824;2022-11-20T15:40:25;10.37;;;6.43;;
74612;SDS011;63119;51.788;8.824;2022-11-20T15:42:50;12.50;;;6.60;;
74612;SDS011;63119;51.788;8.824;2022-11-20T15:45:28;13.35;;;6.72;;
74612;SDS011;63119;51.788;8.824;2022-11-20T15:48:17;15.38;;;8.57;;
74612;SDS011;63119;51.788;8.824;2022-11-20T15:50:52;11.50;;;7.53;;
74612;SDS011;63119;51.788;8.824;2022-11-20T15:53:21;13.70;;;6.28;;
74612;SDS011;63119;51.788;8.824;2022-11-20T15:55:47;13.25;;;6.57;;
74612;SDS011;63119;51.788;8.824;2022-11-20T15:58:13;11.32;;;6.07;;
74612;SDS011;63119;51.788;8.824;2022-11-20T16:00:38;12.63;;;6.10;;
74612;SDS011;63119;51.788;8.824;2022-11-20T16:03:04;16.60;;;7.75;;
74612;SDS011;63119;51.788;8.824;2022-11-20T16:05:29;14.13;;;6.57;;
74612;SDS011;63119;51.788;8.824;2022-11-20T16:07:55;13.85;;;7.22;;
74612;SDS011;63119;51.788;8.824;2022-11-20T16:10:20;17.05;;;6.90;;
74612;SDS011;63119;51.788;8.824;2022-11-20T16:12:46;13.52;;;8.38;;